M I D A S
Marine Information and Data Acquisition System
Tripno 2046 of the Zeeleeuw from 2011-02-23 07:51:06 to 2011-02-23 15:02:59
Back to CruiseResearch ActivitiesStationsMapUnderway DataData graphs

EquipmentUnitsComment
TimeDGPSUTC
LatitudeDGPSDM.mWGS84
LongitudeDGPSDM.mWGS84
HeadingGyrodeg 
SOGDGPSknotsSpeed over ground
COGDGPSdegCourse over ground
DepthEcho soundermeters200 kHz
Missing or incorrect values are displayed as -999
Navigation data collected by the RV Zeeleeuw from 2011-02-23 06:56:33 to 2011-02-23 15:09:00
                                                                                    Next 1000 lines
Time Latitude Longitude Heading SOG COG Depth
2011-02-23 06:56:43 51°13.665 2°55.955 126.4 0.1 267 -999
2011-02-23 06:56:48 51°13.665 2°55.956 126.4 0.1 297 -999
2011-02-23 06:56:53 51°13.665 2°55.956 126.4 0.1 122 -999
2011-02-23 06:56:58 51°13.665 2°55.956 126.4 -999 79 -999
2011-02-23 06:57:03 51°13.665 2°55.956 126.4 0.1 172 -999
2011-02-23 06:57:09 51°13.664 2°55.956 126.3 0.1 125 -999
2011-02-23 06:57:13 51°13.664 2°55.956 126.3 0.2 100 -999
2011-02-23 06:57:18 51°13.665 2°55.956 126.3 -999 332 -999
2011-02-23 06:57:23 51°13.665 2°55.956 126.3 0.1 291 -999
2011-02-23 06:57:28 51°13.665 2°55.956 126.3 0.2 285 -999
2011-02-23 06:57:33 51°13.665 2°55.957 126.3 -999 273 -999
2011-02-23 06:57:38 51°13.665 2°55.957 126.3 -999 87 -999
2011-02-23 06:57:43 51°13.664 2°55.958 126.3 0.1 118 -999
2011-02-23 06:57:48 51°13.664 2°55.958 126.3 0.1 103 -999
2011-02-23 06:57:53 51°13.664 2°55.958 126.3 -999 276 -999
2011-02-23 06:57:58 51°13.664 2°55.958 126.3 -999 311 -999
2011-02-23 06:58:03 51°13.664 2°55.958 126.3 0.1 100 -999
2011-02-23 06:58:07 51°13.663 2°55.958 126.3 -999 60 -999
2011-02-23 06:58:13 51°13.662 2°55.958 126.3 0.1 300 -999
2011-02-23 06:58:18 51°13.662 2°55.959 126.3 0.1 293 -999
2011-02-23 06:58:23 51°13.662 2°55.959 126.3 0.1 99 -999
2011-02-23 06:58:28 51°13.662 2°55.959 126.3 0.1 103 -999
2011-02-23 06:58:33 51°13.662 2°55.959 126.3 0.1 101 -999
2011-02-23 06:58:38 51°13.662 2°55.959 126.3 0.1 333 -999
2011-02-23 06:58:43 51°13.662 2°55.959 126.3 0.1 278 -999
2011-02-23 06:58:48 51°13.662 2°55.959 126.3 -999 111 -999
2011-02-23 06:58:53 51°13.662 2°55.959 126.3 -999 30 -999
2011-02-23 06:58:58 51°13.662 2°55.959 126.3 -999 306 -999
2011-02-23 06:59:03 51°13.662 2°55.958 126.3 0.2 282 -999
2011-02-23 06:59:08 51°13.662 2°55.959 126.2 0.2 283 -999
2011-02-23 06:59:13 51°13.662 2°55.959 126.2 0.1 317 -999
2011-02-23 06:59:18 51°13.662 2°55.959 126.1 0.1 278 -999
2011-02-23 06:59:23 51°13.662 2°55.959 126.1 0.1 260 -999
2011-02-23 06:59:28 51°13.662 2°55.96 126.1 -999 184 -999
2011-02-23 06:59:33 51°13.662 2°55.96 126.1 -999 150 -999
2011-02-23 06:59:38 51°13.662 2°55.96 126.1 0.1 287 -999
2011-02-23 06:59:43 51°13.662 2°55.96 126.1 0.1 298 -999
2011-02-23 06:59:48 51°13.662 2°55.96 126.1 -999 345 -999
2011-02-23 06:59:53 51°13.661 2°55.96 126.1 0.1 340 -999
2011-02-23 06:59:58 51°13.661 2°55.96 126.1 -999 154 -999
2011-02-23 07:00:03 51°13.661 2°55.96 126.1 0.1 265 -999
2011-02-23 07:00:08 51°13.661 2°55.96 126.1 -999 97 -999
2011-02-23 07:00:13 51°13.661 2°55.96 126.1 0.1 53 -999
2011-02-23 07:00:18 51°13.661 2°55.96 126.1 -999 310 -999
2011-02-23 07:00:23 51°13.662 2°55.96 126.1 0.1 276 -999
2011-02-23 07:00:28 51°13.662 2°55.96 126.1 -999 284 -999
2011-02-23 07:00:33 51°13.662 2°55.961 126.1 0.1 79 -999
2011-02-23 07:00:38 51°13.662 2°55.961 126.1 0.1 77 -999
2011-02-23 07:00:43 51°13.662 2°55.961 126.1 0.1 66 -999
2011-02-23 07:00:48 51°13.662 2°55.96 126.1 -999 57 -999
2011-02-23 07:00:52 51°13.662 2°55.96 126 -999 327 -999
2011-02-23 07:00:58 51°13.662 2°55.959 126 0.1 303 -999
2011-02-23 07:01:03 51°13.662 2°55.96 126 -999 284 -999
2011-02-23 07:01:08 51°13.663 2°55.96 125.9 0.1 101 -999
2011-02-23 07:01:13 51°13.663 2°55.96 125.9 0.1 152 -999
2011-02-23 07:01:18 51°13.663 2°55.961 125.9 0.1 106 -999
2011-02-23 07:01:23 51°13.663 2°55.961 125.8 0.2 100 -999
2011-02-23 07:01:28 51°13.663 2°55.96 125.8 0.1 63 -999
2011-02-23 07:01:33 51°13.663 2°55.96 125.8 -999 345 -999
2011-02-23 07:01:38 51°13.663 2°55.96 125.8 0.1 85 -999
2011-02-23 07:01:43 51°13.663 2°55.96 125.8 -999 109 -999
2011-02-23 07:01:48 51°13.663 2°55.96 125.9 -999 308 -999
2011-02-23 07:01:52 51°13.663 2°55.96 125.9 0.1 286 -999
2011-02-23 07:01:58 51°13.663 2°55.96 125.9 0.1 283 -999
2011-02-23 07:02:03 51°13.663 2°55.96 126 0.1 304 -999
2011-02-23 07:02:08 51°13.663 2°55.961 126 0.1 82 -999
2011-02-23 07:02:13 51°13.663 2°55.961 126 0.1 97 -999
2011-02-23 07:02:18 51°13.663 2°55.961 126 0.1 79 -999
2011-02-23 07:02:23 51°13.662 2°55.961 126.1 0.1 169 -999
2011-02-23 07:02:28 51°13.663 2°55.961 126.1 0.1 275 -999
2011-02-23 07:02:33 51°13.663 2°55.961 126.1 0.2 281 -999
2011-02-23 07:02:38 51°13.663 2°55.962 126.1 -999 224 -999
2011-02-23 07:02:43 51°13.663 2°55.962 126.1 0.2 89 -999
2011-02-23 07:02:48 51°13.663 2°55.962 126.1 0.1 79 -999
2011-02-23 07:02:53 51°13.663 2°55.962 126.1 -999 21 -999
2011-02-23 07:02:58 51°13.662 2°55.962 126.1 0.1 322 -999
2011-02-23 07:03:03 51°13.662 2°55.961 126.1 0.2 287 -999
2011-02-23 07:03:08 51°13.662 2°55.961 126.1 0.1 278 -999
2011-02-23 07:03:13 51°13.662 2°55.961 126.1 -999 134 -999
2011-02-23 07:03:18 51°13.662 2°55.961 126.1 -999 204 -999
2011-02-23 07:03:23 51°13.662 2°55.961 126.1 -999 212 -999
2011-02-23 07:03:28 51°13.662 2°55.961 126 0.1 296 -999
2011-02-23 07:03:33 51°13.662 2°55.961 126 0.1 280 -999
2011-02-23 07:03:38 51°13.662 2°55.961 125.8 -999 272 -999
2011-02-23 07:03:42 51°13.662 2°55.961 125.8 -999 340 -999
2011-02-23 07:03:48 51°13.662 2°55.961 125.7 -999 301 -999
2011-02-23 07:03:53 51°13.662 2°55.96 125.7 0.1 293 -999
2011-02-23 07:03:58 51°13.662 2°55.96 125.6 -999 253 -999
2011-02-23 07:04:03 51°13.662 2°55.96 125.5 0.1 288 -999
2011-02-23 07:04:08 51°13.662 2°55.961 125.4 -999 100 -999
2011-02-23 07:04:13 51°13.662 2°55.961 125.3 0.2 92 -999
2011-02-23 07:04:18 51°13.662 2°55.961 125.3 0.1 63 -999
2011-02-23 07:04:23 51°13.663 2°55.96 125.2 0.1 288 -999
2011-02-23 07:04:27 51°13.663 2°55.96 125.2 -999 303 -999
2011-02-23 07:04:32 51°13.663 2°55.96 125.2 -999 336 -999
2011-02-23 07:04:38 51°13.663 2°55.96 125.2 0.1 354 -999
2011-02-23 07:04:43 51°13.663 2°55.96 125.2 0.1 276 -999
2011-02-23 07:04:47 51°13.663 2°55.96 125.2 0.1 261 -999
2011-02-23 07:04:53 51°13.663 2°55.96 125.2 0.1 267 -999
2011-02-23 07:04:58 51°13.663 2°55.96 125.3 0.1 284 -999
2011-02-23 07:05:03 51°13.663 2°55.96 125.3 0.1 279 -999
2011-02-23 07:05:08 51°13.663 2°55.96 125.3 -999 323 -999
2011-02-23 07:05:13 51°13.663 2°55.96 125.3 -999 72 -999
2011-02-23 07:05:18 51°13.663 2°55.96 125.3 0.1 94 -999
2011-02-23 07:05:23 51°13.663 2°55.96 125.3 -999 37 -999
2011-02-23 07:05:27 51°13.663 2°55.96 125.2 0.1 299 -999
2011-02-23 07:05:33 51°13.663 2°55.96 125.1 -999 203 -999
2011-02-23 07:05:37 51°13.663 2°55.96 125.1 -999 152 -999
2011-02-23 07:05:43 51°13.663 2°55.959 125 0.1 288 -999
2011-02-23 07:05:48 51°13.663 2°55.959 124.9 0.1 271 -999
2011-02-23 07:05:53 51°13.663 2°55.96 124.9 -999 148 -999
2011-02-23 07:05:58 51°13.663 2°55.96 124.9 0.1 43 -999
2011-02-23 07:06:03 51°13.663 2°55.96 124.9 -999 24 -999
2011-02-23 07:06:08 51°13.663 2°55.96 124.9 -999 93 -999
2011-02-23 07:06:13 51°13.663 2°55.96 124.9 -999 155 -999
2011-02-23 07:06:18 51°13.662 2°55.96 125.1 -999 126 -999
2011-02-23 07:06:23 51°13.662 2°55.96 125.3 0.1 115 -999
2011-02-23 07:06:28 51°13.662 2°55.96 125.6 0.1 102 -999
2011-02-23 07:06:33 51°13.662 2°55.96 125.9 -999 198 -999
2011-02-23 07:06:38 51°13.662 2°55.96 126 -999 259 -999
2011-02-23 07:06:43 51°13.662 2°55.96 126.2 -999 269 -999
2011-02-23 07:06:48 51°13.662 2°55.96 126.3 -999 199 -999
2011-02-23 07:06:53 51°13.662 2°55.961 126.4 0.2 104 -999
2011-02-23 07:06:58 51°13.662 2°55.961 126.4 -999 93 -999
2011-02-23 07:07:03 51°13.662 2°55.961 126.4 -999 40 -999
2011-02-23 07:07:08 51°13.662 2°55.96 126.4 0.1 329 -999
2011-02-23 07:07:13 51°13.662 2°55.96 126.4 0.1 301 -999
2011-02-23 07:07:17 51°13.662 2°55.96 126 0.1 303 -999
2011-02-23 07:07:22 51°13.662 2°55.96 125.7 0.2 306 -999
2011-02-23 07:07:28 51°13.663 2°55.959 125.2 0.2 299 -999
2011-02-23 07:07:33 51°13.663 2°55.959 124.8 0.2 307 -999
2011-02-23 07:07:38 51°13.663 2°55.959 124.4 0.2 303 -999
2011-02-23 07:07:43 51°13.663 2°55.96 124.4 -999 109 -999
2011-02-23 07:07:48 51°13.663 2°55.96 124.4 -999 203 -999
2011-02-23 07:07:53 51°13.663 2°55.96 124.4 -999 207 -999
2011-02-23 07:07:58 51°13.663 2°55.961 124.6 0.1 98 -999
2011-02-23 07:08:03 51°13.663 2°55.961 124.6 0.1 97 -999
2011-02-23 07:08:08 51°13.663 2°55.961 124.7 0.1 90 -999
2011-02-23 07:08:13 51°13.663 2°55.961 124.7 0.1 92 -999
2011-02-23 07:08:18 51°13.663 2°55.961 124.8 0.1 97 -999
2011-02-23 07:08:23 51°13.663 2°55.961 124.9 0.1 99 -999
2011-02-23 07:08:28 51°13.663 2°55.96 124.9 -999 66 -999
2011-02-23 07:08:33 51°13.663 2°55.96 125 -999 317 -999
2011-02-23 07:08:38 51°13.663 2°55.96 125.2 0.1 111 -999
2011-02-23 07:08:43 51°13.663 2°55.96 125.2 -999 18 -999
2011-02-23 07:08:48 51°13.663 2°55.96 125.3 -999 83 -999
2011-02-23 07:08:53 51°13.663 2°55.96 125.4 0.1 80 -999
2011-02-23 07:08:58 51°13.663 2°55.96 125.4 -999 103 -999
2011-02-23 07:09:03 51°13.663 2°55.96 125.5 0.1 105 -999
2011-02-23 07:09:08 51°13.663 2°55.96 125.5 0.1 315 -999
2011-02-23 07:09:13 51°13.663 2°55.96 125.5 0.1 309 -999
2011-02-23 07:09:18 51°13.663 2°55.96 125.5 0.1 296 -999
2011-02-23 07:09:23 51°13.663 2°55.96 125.5 0.1 280 -999
2011-02-23 07:09:28 51°13.663 2°55.959 125.5 0.1 258 -999
2011-02-23 07:09:33 51°13.663 2°55.96 125.5 0.1 200 -999
2011-02-23 07:09:38 51°13.663 2°55.96 125.5 -999 36 -999
2011-02-23 07:09:43 51°13.663 2°55.959 125.5 0.1 283 -999
2011-02-23 07:09:48 51°13.663 2°55.959 125.5 -999 151 -999
2011-02-23 07:09:53 51°13.663 2°55.96 125.5 0.1 83 -999
2011-02-23 07:09:58 51°13.663 2°55.959 125.5 -999 300 -999
2011-02-23 07:10:03 51°13.663 2°55.959 125.5 -999 219 -999
2011-02-23 07:10:08 51°13.663 2°55.96 125.5 0.1 100 -999
2011-02-23 07:10:13 51°13.663 2°55.959 125.5 0.1 334 -999
2011-02-23 07:10:18 51°13.663 2°55.959 125.5 -999 317 -999
2011-02-23 07:10:23 51°13.663 2°55.959 125.5 0.1 243 -999
2011-02-23 07:10:28 51°13.663 2°55.96 125.6 0.1 141 -999
2011-02-23 07:10:33 51°13.663 2°55.96 125.6 0.1 88 -999
2011-02-23 07:10:38 51°13.663 2°55.96 125.7 0.1 99 -999
2011-02-23 07:10:43 51°13.663 2°55.96 125.7 0.1 141 -999
2011-02-23 07:10:47 51°13.663 2°55.96 125.7 -999 290 -999
2011-02-23 07:10:53 51°13.663 2°55.959 125.8 0.1 267 -999
2011-02-23 07:10:58 51°13.663 2°55.959 125.9 0.1 283 -999
2011-02-23 07:11:03 51°13.663 2°55.959 126 0.1 291 -999
2011-02-23 07:11:08 51°13.663 2°55.96 126.1 0.1 194 -999
2011-02-23 07:11:13 51°13.663 2°55.96 126.2 -999 89 -999
2011-02-23 07:11:18 51°13.663 2°55.96 126.3 0.1 62 -999
2011-02-23 07:11:23 51°13.663 2°55.96 126.4 -999 9 -999
2011-02-23 07:11:28 51°13.663 2°55.96 126.5 -999 56 -999
2011-02-23 07:11:33 51°13.663 2°55.96 126.8 -999 74 -999
2011-02-23 07:11:38 51°13.663 2°55.96 127 -999 200 -999
2011-02-23 07:11:43 51°13.663 2°55.96 127.1 -999 169 -999
2011-02-23 07:11:48 51°13.663 2°55.96 127.4 -999 196 -999
2011-02-23 07:11:53 51°13.663 2°55.96 127.6 -999 217 -999
2011-02-23 07:11:58 51°13.663 2°55.96 127.7 0.1 55 -999
2011-02-23 07:12:03 51°13.663 2°55.96 127.8 -999 89 -999
2011-02-23 07:12:08 51°13.663 2°55.96 127.8 -999 44 -999
2011-02-23 07:12:13 51°13.663 2°55.96 127.8 -999 125 -999
2011-02-23 07:12:18 51°13.663 2°55.96 127.8 0.1 255 -999
2011-02-23 07:12:23 51°13.662 2°55.96 127.6 -999 216 -999
2011-02-23 07:12:28 51°13.662 2°55.96 127.5 0.1 240 -999
2011-02-23 07:12:33 51°13.662 2°55.96 127.3 0.1 278 -999
2011-02-23 07:12:38 51°13.662 2°55.96 127.1 -999 274 -999
2011-02-23 07:12:43 51°13.662 2°55.96 127 0.1 107 -999
2011-02-23 07:12:48 51°13.662 2°55.96 126.9 0.1 291 -999
2011-02-23 07:12:53 51°13.662 2°55.96 126.8 0.1 289 -999
2011-02-23 07:12:58 51°13.662 2°55.96 126.7 0.1 303 -999
2011-02-23 07:13:03 51°13.663 2°55.959 126.6 0.1 293 -999
2011-02-23 07:13:08 51°13.662 2°55.96 126.5 -999 268 -999
2011-02-23 07:13:13 51°13.662 2°55.96 126.4 0.1 286 -999
2011-02-23 07:13:17 51°13.662 2°55.96 126.4 0.1 275 -999
2011-02-23 07:13:22 51°13.662 2°55.96 126.4 0.1 242 -999
2011-02-23 07:13:28 51°13.662 2°55.96 126.3 -999 357 -999
2011-02-23 07:13:33 51°13.662 2°55.96 126.2 0.1 218 -999
2011-02-23 07:13:38 51°13.662 2°55.96 126.2 0.1 127 -999
2011-02-23 07:13:43 51°13.662 2°55.96 126.2 -999 147 -999
2011-02-23 07:13:48 51°13.662 2°55.96 126.1 0.1 227 -999
2011-02-23 07:13:53 51°13.662 2°55.96 126.1 0.1 195 -999
2011-02-23 07:13:58 51°13.662 2°55.96 126.1 -999 24 -999
2011-02-23 07:14:03 51°13.662 2°55.96 126.1 -999 315 -999
2011-02-23 07:14:08 51°13.662 2°55.961 126.1 0.1 120 -999
2011-02-23 07:14:13 51°13.662 2°55.961 126.1 0.1 117 -999
2011-02-23 07:14:18 51°13.662 2°55.961 126.1 0.1 94 -999
2011-02-23 07:14:23 51°13.662 2°55.961 126.2 0.1 67 -999
2011-02-23 07:14:27 51°13.662 2°55.961 126.2 0.1 84 -999
2011-02-23 07:14:32 51°13.662 2°55.961 126.3 0.1 125 -999
2011-02-23 07:14:38 51°13.662 2°55.96 126.4 0.1 260 -999
2011-02-23 07:14:43 51°13.662 2°55.961 126.4 0.1 131 -999
2011-02-23 07:14:48 51°13.662 2°55.961 126.4 -999 44 -999
2011-02-23 07:14:53 51°13.662 2°55.96 126.5 0.1 333 -999
2011-02-23 07:14:58 51°13.662 2°55.961 126.5 0.1 173 -999
2011-02-23 07:15:03 51°13.662 2°55.961 126.6 0.2 93 -999
2011-02-23 07:15:08 51°13.662 2°55.962 126.8 0.2 81 -999
2011-02-23 07:15:13 51°13.662 2°55.961 126.9 -999 13 -999
2011-02-23 07:15:18 51°13.662 2°55.96 127.1 -999 283 -999
2011-02-23 07:15:23 51°13.662 2°55.96 127.1 0.1 266 -999
2011-02-23 07:15:28 51°13.662 2°55.96 127.1 -999 212 -999
2011-02-23 07:15:33 51°13.662 2°55.96 127.3 0.1 127 -999
2011-02-23 07:15:38 51°13.662 2°55.96 127.4 0.1 95 -999
2011-02-23 07:15:42 51°13.662 2°55.96 127.5 0.1 120 -999
2011-02-23 07:15:47 51°13.662 2°55.959 127.6 0.1 254 -999
2011-02-23 07:15:53 51°13.662 2°55.96 127.6 -999 102 -999
2011-02-23 07:15:58 51°13.662 2°55.96 127.6 0.1 85 -999
2011-02-23 07:16:03 51°13.662 2°55.96 127.6 -999 346 -999
2011-02-23 07:16:08 51°13.662 2°55.96 127.6 0.1 273 -999
2011-02-23 07:16:13 51°13.662 2°55.961 127.6 0.1 118 -999
2011-02-23 07:16:18 51°13.662 2°55.96 127.5 -999 318 -999
2011-02-23 07:16:23 51°13.662 2°55.96 127.3 0.1 294 -999
2011-02-23 07:16:28 51°13.662 2°55.96 127.2 0.1 262 -999
2011-02-23 07:16:33 51°13.662 2°55.96 127.1 0.1 286 -999
2011-02-23 07:16:38 51°13.662 2°55.96 127 0.1 277 -999
2011-02-23 07:16:43 51°13.662 2°55.96 127 -999 273 -999
2011-02-23 07:16:48 51°13.662 2°55.96 127 0.1 209 -999
2011-02-23 07:16:53 51°13.662 2°55.96 127 0.1 140 -999
2011-02-23 07:16:58 51°13.662 2°55.96 126.9 0.1 46 -999
2011-02-23 07:17:03 51°13.662 2°55.96 126.8 -999 308 -999
2011-02-23 07:17:08 51°13.662 2°55.959 126.8 0.1 308 -999
2011-02-23 07:17:13 51°13.662 2°55.959 126.7 0.1 286 -999
2011-02-23 07:17:18 51°13.661 2°55.959 126.7 0.1 192 -999
2011-02-23 07:17:23 51°13.661 2°55.959 126.7 -999 143 -999
2011-02-23 07:17:28 51°13.661 2°55.959 126.7 0.1 223 -999
2011-02-23 07:17:32 51°13.661 2°55.959 126.7 0.1 290 -999
2011-02-23 07:17:37 51°13.661 2°55.959 126.7 -999 82 -999
2011-02-23 07:17:42 51°13.661 2°55.959 126.7 -999 344 -999
2011-02-23 07:17:48 51°13.661 2°55.959 126.8 0.1 306 -999
2011-02-23 07:17:53 51°13.661 2°55.959 126.8 -999 231 -999
2011-02-23 07:17:58 51°13.661 2°55.959 126.8 -999 125 -999
2011-02-23 07:18:03 51°13.661 2°55.959 126.8 -999 73 -999
2011-02-23 07:18:08 51°13.661 2°55.959 126.8 -999 263 -999
2011-02-23 07:18:13 51°13.661 2°55.959 126.8 0.1 255 -999
2011-02-23 07:18:18 51°13.661 2°55.959 126.8 -999 158 -999
2011-02-23 07:18:23 51°13.661 2°55.96 126.8 -999 99 -999
2011-02-23 07:18:28 51°13.661 2°55.959 126.8 0.1 284 -999
2011-02-23 07:18:33 51°13.661 2°55.959 126.8 0.1 255 -999
2011-02-23 07:18:38 51°13.661 2°55.959 126.8 0.1 251 -999
2011-02-23 07:18:43 51°13.662 2°55.959 126.8 0.1 339 -999
2011-02-23 07:18:48 51°13.662 2°55.959 126.8 -999 319 -999
2011-02-23 07:18:53 51°13.662 2°55.959 126.8 0.1 11 -999
2011-02-23 07:18:58 51°13.662 2°55.959 126.8 -999 359 -999
2011-02-23 07:19:02 51°13.662 2°55.959 126.8 -999 298 -999
2011-02-23 07:19:08 51°13.662 2°55.959 126.8 -999 177 -999
2011-02-23 07:19:13 51°13.662 2°55.959 126.8 -999 182 -999
2011-02-23 07:19:18 51°13.661 2°55.959 126.8 0.1 188 -999
2011-02-23 07:19:23 51°13.662 2°55.959 126.8 0.1 50 -999
2011-02-23 07:19:28 51°13.661 2°55.959 126.8 0.1 203 -999
2011-02-23 07:19:33 51°13.661 2°55.959 126.7 0.1 213 -999
2011-02-23 07:19:38 51°13.661 2°55.959 126.7 0.1 208 -999
2011-02-23 07:19:43 51°13.662 2°55.959 126.6 0.1 187 -999
2011-02-23 07:19:47 51°13.662 2°55.959 126.5 -999 308 -999
2011-02-23 07:19:53 51°13.661 2°55.959 126.4 0.1 217 -999
2011-02-23 07:19:58 51°13.662 2°55.959 126.4 -999 217 -999
2011-02-23 07:20:03 51°13.661 2°55.959 126.4 0.1 202 -999
2011-02-23 07:20:08 51°13.661 2°55.959 126.3 -999 232 -999
2011-02-23 07:20:13 51°13.661 2°55.959 126.2 0.1 230 -999
2011-02-23 07:20:18 51°13.662 2°55.959 126.2 0.1 61 -999
2011-02-23 07:20:23 51°13.661 2°55.959 126.2 0.1 354 -999
2011-02-23 07:20:28 51°13.661 2°55.959 126.2 0.1 35 -999
2011-02-23 07:20:33 51°13.661 2°55.959 126.1 0.1 136 -999
2011-02-23 07:20:38 51°13.661 2°55.959 126.1 0.1 349 -999
2011-02-23 07:20:43 51°13.661 2°55.96 126 0.1 104 -999
2011-02-23 07:20:48 51°13.661 2°55.959 126 0.1 225 -999
2011-02-23 07:20:53 51°13.661 2°55.96 126 0.1 157 -999
2011-02-23 07:20:58 51°13.66 2°55.96 125.9 0.1 159 -999
2011-02-23 07:21:03 51°13.66 2°55.96 125.9 -999 216 -999
2011-02-23 07:21:07 51°13.66 2°55.96 125.9 -999 60 -999
2011-02-23 07:21:13 51°13.66 2°55.96 125.9 0.1 168 -999
2011-02-23 07:21:18 51°13.66 2°55.96 125.9 0.1 211 -999
2011-02-23 07:21:23 51°13.66 2°55.96 125.9 0.1 218 -999
2011-02-23 07:21:28 51°13.66 2°55.96 125.9 -999 216 -999
2011-02-23 07:21:33 51°13.66 2°55.96 125.9 -999 234 -999
2011-02-23 07:21:38 51°13.66 2°55.96 125.9 0.1 137 -999
2011-02-23 07:21:43 51°13.66 2°55.96 125.9 0.1 347 -999
2011-02-23 07:21:48 51°13.66 2°55.96 125.9 -999 354 -999
2011-02-23 07:21:53 51°13.66 2°55.96 126 0.1 212 -999
2011-02-23 07:21:58 51°13.66 2°55.96 126 0.1 43 -999
2011-02-23 07:22:03 51°13.66 2°55.96 126 0.1 42 -999
2011-02-23 07:22:08 51°13.66 2°55.96 126.2 -999 154 -999
2011-02-23 07:22:13 51°13.66 2°55.96 126.2 0.1 286 -999
2011-02-23 07:22:18 51°13.66 2°55.96 126.4 -999 281 -999
2011-02-23 07:22:23 51°13.661 2°55.96 126.4 0.1 8 -999
2011-02-23 07:22:28 51°13.661 2°55.96 126.4 -999 136 -999
2011-02-23 07:22:33 51°13.661 2°55.959 126.5 -999 200 -999
2011-02-23 07:22:37 51°13.661 2°55.959 126.5 -999 2 -999
2011-02-23 07:22:43 51°13.661 2°55.959 126.5 -999 353 -999
2011-02-23 07:22:47 51°13.661 2°55.959 126.5 0.1 173 -999
2011-02-23 07:22:53 51°13.661 2°55.959 126.5 -999 170 -999
2011-02-23 07:22:58 51°13.661 2°55.959 126.5 -999 297 -999
2011-02-23 07:23:03 51°13.661 2°55.959 126.5 -999 48 -999
2011-02-23 07:23:08 51°13.661 2°55.959 126.5 0.1 183 -999
2011-02-23 07:23:13 51°13.661 2°55.959 126.5 0.2 171 -999
2011-02-23 07:23:18 51°13.661 2°55.959 126.5 0.1 161 -999
2011-02-23 07:23:23 51°13.661 2°55.959 126.5 -999 183 -999
2011-02-23 07:23:27 51°13.661 2°55.959 126.5 -999 5 -999
2011-02-23 07:23:33 51°13.661 2°55.959 126.6 -999 36 -999
2011-02-23 07:23:37 51°13.661 2°55.959 126.7 0.1 192 -999
2011-02-23 07:23:43 51°13.661 2°55.959 126.8 -999 291 -999
2011-02-23 07:23:48 51°13.661 2°55.96 126.8 0.1 182 -999
2011-02-23 07:23:53 51°13.661 2°55.959 126.8 0.1 168 -999
2011-02-23 07:23:58 51°13.66 2°55.96 126.7 0.1 188 -999
2011-02-23 07:24:03 51°13.661 2°55.96 126.6 -999 350 -999
2011-02-23 07:24:08 51°13.661 2°55.96 126.5 -999 109 -999
2011-02-23 07:24:13 51°13.661 2°55.96 126.5 -999 122 -999
2011-02-23 07:24:18 51°13.661 2°55.96 126.5 0.1 176 -999
2011-02-23 07:24:23 51°13.661 2°55.96 126.5 0.1 72 -999
2011-02-23 07:24:28 51°13.661 2°55.96 126.5 0.1 163 -999
2011-02-23 07:24:33 51°13.661 2°55.96 126.5 -999 20 -999
2011-02-23 07:24:38 51°13.661 2°55.959 126.6 -999 324 -999
2011-02-23 07:24:43 51°13.661 2°55.96 126.6 0.1 180 -999
2011-02-23 07:24:48 51°13.661 2°55.96 126.6 0.1 174 -999
2011-02-23 07:24:53 51°13.661 2°55.96 126.6 -999 100 -999
2011-02-23 07:24:57 51°13.661 2°55.96 126.5 0.1 192 -999
2011-02-23 07:25:02 51°13.661 2°55.959 126.5 -999 340 -999
2011-02-23 07:25:07 51°13.661 2°55.959 126.5 -999 223 -999
2011-02-23 07:25:13 51°13.661 2°55.96 126.4 0.1 180 -999
2011-02-23 07:25:18 51°13.661 2°55.96 126.4 0.1 182 -999
2011-02-23 07:25:23 51°13.661 2°55.96 126.4 0.1 55 -999
2011-02-23 07:25:28 51°13.662 2°55.96 126.4 0.1 24 -999
2011-02-23 07:25:33 51°13.661 2°55.959 126.4 0.1 213 -999
2011-02-23 07:25:38 51°13.661 2°55.96 126.4 0.1 186 -999
2011-02-23 07:25:43 51°13.661 2°55.96 126.3 0.1 162 -999
2011-02-23 07:25:48 51°13.662 2°55.96 126.2 -999 153 -999
2011-02-23 07:25:53 51°13.662 2°55.96 126.1 -999 118 -999
2011-02-23 07:25:58 51°13.662 2°55.96 126 -999 55 -999
2011-02-23 07:26:03 51°13.661 2°55.96 126 0.1 177 -999
2011-02-23 07:26:08 51°13.662 2°55.96 126 -999 66 -999
2011-02-23 07:26:13 51°13.661 2°55.96 126 -999 297 -999
2011-02-23 07:26:18 51°13.661 2°55.96 126 0.1 177 -999
2011-02-23 07:26:23 51°13.662 2°55.96 126.1 0.1 18 -999
2011-02-23 07:26:28 51°13.662 2°55.96 126.2 -999 40 -999
2011-02-23 07:26:33 51°13.662 2°55.96 126.4 0.1 357 -999
2011-02-23 07:26:38 51°13.661 2°55.96 126.5 -999 237 -999
2011-02-23 07:26:42 51°13.662 2°55.96 126.7 0.1 357 -999
2011-02-23 07:26:48 51°13.662 2°55.96 126.8 -999 -999 -999
2011-02-23 07:26:53 51°13.662 2°55.96 127 0.1 184 -999
2011-02-23 07:26:58 51°13.662 2°55.96 127.1 -999 138 -999
2011-02-23 07:27:03 51°13.662 2°55.96 127.1 0.1 346 -999
2011-02-23 07:27:08 51°13.661 2°55.96 127.2 0.1 167 -999
2011-02-23 07:27:13 51°13.662 2°55.96 127.2 -999 173 -999
2011-02-23 07:27:18 51°13.661 2°55.96 127.2 -999 204 -999
2011-02-23 07:27:23 51°13.661 2°55.96 127.2 -999 176 -999
2011-02-23 07:27:28 51°13.661 2°55.96 127.1 -999 323 -999
2011-02-23 07:27:33 51°13.661 2°55.96 126.9 -999 114 -999
2011-02-23 07:27:38 51°13.661 2°55.96 126.7 -999 185 -999
2011-02-23 07:27:43 51°13.661 2°55.96 126.4 0.1 192 -999
2011-02-23 07:27:48 51°13.661 2°55.96 126.2 0.2 184 -999
2011-02-23 07:27:53 51°13.662 2°55.96 126.2 0.1 167 -999
2011-02-23 07:27:58 51°13.662 2°55.96 126.2 0.1 4 -999
2011-02-23 07:28:03 51°13.662 2°55.96 126.2 0.1 343 -999
2011-02-23 07:28:08 51°13.662 2°55.96 126.2 0.1 15 -999
2011-02-23 07:28:13 51°13.662 2°55.96 126.1 0.2 354 -999
2011-02-23 07:28:18 51°13.662 2°55.96 126.1 -999 254 -999
2011-02-23 07:28:23 51°13.662 2°55.96 126 -999 52 -999
2011-02-23 07:28:28 51°13.662 2°55.96 126 -999 273 -999
2011-02-23 07:28:33 51°13.662 2°55.96 126 0.1 166 -999
2011-02-23 07:28:38 51°13.662 2°55.96 126 -999 306 -999
2011-02-23 07:28:43 51°13.662 2°55.96 126 -999 183 -999
2011-02-23 07:28:48 51°13.662 2°55.96 126 -999 152 -999
2011-02-23 07:28:53 51°13.662 2°55.96 126 -999 161 -999
2011-02-23 07:28:58 51°13.662 2°55.96 126 -999 194 -999
2011-02-23 07:29:03 51°13.662 2°55.959 126 0.1 330 -999
2011-02-23 07:29:07 51°13.662 2°55.959 126 -999 181 -999
2011-02-23 07:29:12 51°13.663 2°55.96 126 -999 9 -999
2011-02-23 07:29:18 51°13.663 2°55.959 126 0.1 358 -999
2011-02-23 07:29:23 51°13.663 2°55.959 126.1 -999 199 -999
2011-02-23 07:29:28 51°13.663 2°55.96 126.1 0.1 156 -999
2011-02-23 07:29:33 51°13.663 2°55.96 126.1 -999 131 -999
2011-02-23 07:29:38 51°13.663 2°55.959 126.2 -999 26 -999
2011-02-23 07:29:43 51°13.663 2°55.959 126.2 -999 90 -999
2011-02-23 07:29:48 51°13.663 2°55.959 126.2 0.1 206 -999
2011-02-23 07:29:52 51°13.663 2°55.959 126.2 -999 49 -999
2011-02-23 07:29:58 51°13.663 2°55.959 126.2 0.1 347 -999
2011-02-23 07:30:03 51°13.663 2°55.959 126.2 0.1 345 -999
2011-02-23 07:30:08 51°13.663 2°55.959 126.2 -999 92 -999
2011-02-23 07:30:13 51°13.663 2°55.959 126.2 0.1 183 -999
2011-02-23 07:30:18 51°13.663 2°55.959 126.2 0.1 195 -999
2011-02-23 07:30:23 51°13.663 2°55.959 126.2 0.1 168 -999
2011-02-23 07:30:28 51°13.664 2°55.959 126.2 -999 22 -999
2011-02-23 07:30:33 51°13.664 2°55.959 126.2 0.1 14 -999
2011-02-23 07:30:38 51°13.664 2°55.959 126.2 -999 277 -999
2011-02-23 07:30:43 51°13.663 2°55.959 126.2 -999 217 -999
2011-02-23 07:30:48 51°13.663 2°55.959 126.3 -999 136 -999
2011-02-23 07:30:53 51°13.663 2°55.959 126.4 -999 78 -999
2011-02-23 07:30:57 51°13.663 2°55.959 126.4 0.1 4 -999
2011-02-23 07:31:03 51°13.663 2°55.959 126.4 -999 232 -999
2011-02-23 07:31:08 51°13.663 2°55.96 126.5 0.1 170 -999
2011-02-23 07:31:13 51°13.663 2°55.96 126.5 0.1 144 -999
2011-02-23 07:31:18 51°13.663 2°55.96 126.5 0.1 136 -999
2011-02-23 07:31:23 51°13.663 2°55.96 126.5 0.1 166 -999
2011-02-23 07:31:28 51°13.662 2°55.96 126.5 0.1 187 -999
2011-02-23 07:31:33 51°13.662 2°55.96 126.5 0.2 189 -999
2011-02-23 07:31:38 51°13.663 2°55.96 126.5 0.1 10 -999
2011-02-23 07:31:43 51°13.663 2°55.959 126.5 0.1 6 -999
2011-02-23 07:31:48 51°13.663 2°55.959 126.5 -999 333 -999
2011-02-23 07:31:53 51°13.663 2°55.96 126.4 -999 359 -999
2011-02-23 07:31:58 51°13.663 2°55.96 126.4 0.1 358 -999
2011-02-23 07:32:03 51°13.663 2°55.96 126.4 0.1 9 -999
2011-02-23 07:32:08 51°13.663 2°55.96 126.4 0.1 355 -999
2011-02-23 07:32:13 51°13.663 2°55.96 126.4 0.1 346 -999
2011-02-23 07:32:18 51°13.663 2°55.96 126.4 -999 21 -999
2011-02-23 07:32:23 51°13.663 2°55.96 126.4 -999 199 -999
2011-02-23 07:32:28 51°13.663 2°55.959 126.4 0.1 175 -999
2011-02-23 07:32:33 51°13.663 2°55.959 126.4 -999 171 -999
2011-02-23 07:32:38 51°13.663 2°55.959 126.4 0.1 179 -999
2011-02-23 07:32:43 51°13.663 2°55.959 126.4 0.1 162 -999
2011-02-23 07:32:48 51°13.663 2°55.959 126.4 -999 179 -999
2011-02-23 07:32:53 51°13.664 2°55.959 126.4 -999 13 -999
2011-02-23 07:32:58 51°13.664 2°55.959 126.4 -999 165 -999
2011-02-23 07:33:03 51°13.664 2°55.959 126.4 -999 155 -999
2011-02-23 07:33:08 51°13.664 2°55.959 126.4 -999 285 -999
2011-02-23 07:33:13 51°13.664 2°55.959 126.4 -999 349 -999
2011-02-23 07:33:18 51°13.664 2°55.959 126.4 -999 160 -999
2011-02-23 07:33:23 51°13.664 2°55.959 126.4 -999 80 -999
2011-02-23 07:33:28 51°13.664 2°55.959 126.4 -999 11 -999
2011-02-23 07:33:33 51°13.664 2°55.959 126.4 -999 1 -999
2011-02-23 07:33:38 51°13.664 2°55.959 126.4 0.1 197 -999
2011-02-23 07:33:43 51°13.664 2°55.959 126.4 -999 208 -999
2011-02-23 07:33:47 51°13.664 2°55.959 126.4 -999 214 -999
2011-02-23 07:33:53 51°13.664 2°55.959 126.4 0.1 176 -999
2011-02-23 07:33:58 51°13.664 2°55.959 126.4 0.1 45 -999
2011-02-23 07:34:03 51°13.664 2°55.959 126.4 0.1 5 -999
2011-02-23 07:34:08 51°13.664 2°55.959 126.4 0.1 3 -999
2011-02-23 07:34:13 51°13.664 2°55.959 126.4 0.1 6 -999
2011-02-23 07:34:18 51°13.664 2°55.959 126.4 0.1 349 -999
2011-02-23 07:34:23 51°13.664 2°55.959 126.4 0.1 181 -999
2011-02-23 07:34:28 51°13.664 2°55.959 126.4 0.1 158 -999
2011-02-23 07:34:33 51°13.664 2°55.959 126.4 -999 240 -999
2011-02-23 07:34:38 51°13.664 2°55.959 126.4 -999 152 -999
2011-02-23 07:34:43 51°13.664 2°55.959 126.4 -999 176 -999
2011-02-23 07:34:48 51°13.664 2°55.959 126.4 -999 358 -999
2011-02-23 07:34:53 51°13.664 2°55.959 126.4 -999 186 -999
2011-02-23 07:34:57 51°13.664 2°55.959 126.4 -999 321 -999
2011-02-23 07:35:03 51°13.664 2°55.959 126.4 -999 147 -999
2011-02-23 07:35:08 51°13.664 2°55.959 126.4 -999 177 -999
2011-02-23 07:35:13 51°13.664 2°55.959 126.4 0.2 2 -999
2011-02-23 07:35:18 51°13.664 2°55.959 126.4 0.1 346 -999
2011-02-23 07:35:23 51°13.664 2°55.959 126.4 -999 173 -999
2011-02-23 07:35:28 51°13.664 2°55.959 126.3 0.1 190 -999
2011-02-23 07:35:32 51°13.664 2°55.959 126.3 -999 209 -999
2011-02-23 07:35:38 51°13.664 2°55.959 126.2 0.1 199 -999
2011-02-23 07:35:43 51°13.664 2°55.959 126.2 0.2 177 -999
2011-02-23 07:35:48 51°13.664 2°55.959 126.2 0.1 173 -999
2011-02-23 07:35:53 51°13.664 2°55.959 126.2 -999 302 -999
2011-02-23 07:35:58 51°13.664 2°55.959 126.2 -999 243 -999
2011-02-23 07:36:03 51°13.665 2°55.959 126.2 -999 171 -999
2011-02-23 07:36:08 51°13.665 2°55.959 126.2 -999 109 -999
2011-02-23 07:36:13 51°13.665 2°55.959 126.1 -999 322 -999
2011-02-23 07:36:18 51°13.665 2°55.959 126.1 0.1 9 -999
2011-02-23 07:36:23 51°13.665 2°55.959 126.1 0.1 340 -999
2011-02-23 07:36:28 51°13.665 2°55.959 126.1 0.1 193 -999
2011-02-23 07:36:33 51°13.665 2°55.959 126.1 -999 333 -999
2011-02-23 07:36:38 51°13.664 2°55.959 126.1 0.1 179 -999
2011-02-23 07:36:43 51°13.664 2°55.959 126.1 0.1 182 -999
2011-02-23 07:36:48 51°13.665 2°55.959 126.1 0.1 1 8.1
2011-02-23 07:36:53 51°13.665 2°55.959 126.1 -999 165 8.1
2011-02-23 07:36:57 51°13.665 2°55.959 126.1 -999 326 8.1
2011-02-23 07:37:02 51°13.664 2°55.959 126.1 0.2 175 8.1
2011-02-23 07:37:07 51°13.665 2°55.959 126.1 0.1 172 -999
2011-02-23 07:37:13 51°13.664 2°55.959 126.1 0.1 196 -999
2011-02-23 07:37:17 51°13.665 2°55.959 126.1 0.1 183 -999
2011-02-23 07:37:22 51°13.665 2°55.959 126.1 -999 176 -999
2011-02-23 07:37:27 51°13.665 2°55.96 126 -999 119 -999
2011-02-23 07:37:32 51°13.665 2°55.96 126 -999 346 -999
2011-02-23 07:37:38 51°13.665 2°55.96 126 0.1 182 -999
2011-02-23 07:37:43 51°13.665 2°55.96 126 0.1 356 -999
2011-02-23 07:37:48 51°13.665 2°55.96 126 0.1 359 -999
2011-02-23 07:37:53 51°13.664 2°55.96 126 0.1 358 8.2
2011-02-23 07:37:58 51°13.664 2°55.96 126 -999 308 -999
2011-02-23 07:38:03 51°13.664 2°55.96 126 -999 58 -999
2011-02-23 07:38:07 51°13.664 2°55.96 126 0.1 22 6
2011-02-23 07:38:12 51°13.664 2°55.96 126 0.1 338 -999
2011-02-23 07:38:18 51°13.663 2°55.96 126 0.2 184 -999
2011-02-23 07:38:23 51°13.663 2°55.96 126 0.1 167 -999
2011-02-23 07:38:28 51°13.663 2°55.96 126 -999 156 -999
2011-02-23 07:38:32 51°13.663 2°55.96 126 0.1 198 -999
2011-02-23 07:38:37 51°13.663 2°55.96 126 0.2 175 -999
2011-02-23 07:38:43 51°13.663 2°55.961 126 0.1 174 -999
2011-02-23 07:38:48 51°13.663 2°55.96 126 -999 6 -999
2011-02-23 07:38:53 51°13.663 2°55.96 126 -999 181 -999
2011-02-23 07:38:58 51°13.663 2°55.96 126 0.1 184 -999
2011-02-23 07:39:03 51°13.663 2°55.961 126.1 0.1 163 -999
2011-02-23 07:39:07 51°13.663 2°55.961 126.2 0.1 30 -999
2011-02-23 07:39:13 51°13.663 2°55.96 126.2 0.1 11 -999
2011-02-23 07:39:18 51°13.663 2°55.96 126.3 -999 10 -999
2011-02-23 07:39:22 51°13.663 2°55.96 126.3 -999 144 -999
2011-02-23 07:39:27 51°13.663 2°55.96 126.2 -999 14 -999
2011-02-23 07:39:32 51°13.663 2°55.96 126.2 0.1 33 -999
2011-02-23 07:39:38 51°13.664 2°55.96 126.2 0.2 9 -999
2011-02-23 07:39:43 51°13.664 2°55.96 126.2 0.1 358 -999
2011-02-23 07:39:48 51°13.664 2°55.96 126.2 0.1 20 -999
2011-02-23 07:39:53 51°13.664 2°55.96 126.2 0.2 358 -999
2011-02-23 07:39:58 51°13.663 2°55.96 126.2 -999 274 -999
2011-02-23 07:40:03 51°13.663 2°55.96 126.2 -999 352 -999
2011-02-23 07:40:08 51°13.663 2°55.96 126.2 -999 328 -999
2011-02-23 07:40:13 51°13.663 2°55.96 126.2 -999 133 -999
2011-02-23 07:40:17 51°13.664 2°55.96 126.1 0.1 358 5.9
2011-02-23 07:40:23 51°13.664 2°55.96 126 -999 284 -999
2011-02-23 07:40:28 51°13.664 2°55.96 126 -999 259 7.9
2011-02-23 07:40:32 51°13.664 2°55.96 125.8 -999 299 7.9
2011-02-23 07:40:37 51°13.664 2°55.96 125.7 0.1 169 8
2011-02-23 07:40:43 51°13.664 2°55.96 125.6 -999 91 -999
2011-02-23 07:40:48 51°13.664 2°55.96 125.5 -999 167 -999
2011-02-23 07:40:52 51°13.664 2°55.961 125.4 0.1 163 -999
2011-02-23 07:40:58 51°13.664 2°55.961 125.4 0.2 178 -999
2011-02-23 07:41:03 51°13.664 2°55.961 125.4 0.1 155 -999
2011-02-23 07:41:08 51°13.664 2°55.961 125.5 0.1 165 8
2011-02-23 07:41:12 51°13.664 2°55.961 125.9 0.1 79 -999
2011-02-23 07:41:17 51°13.664 2°55.961 126.2 0.1 13 8.1
2011-02-23 07:41:23 51°13.664 2°55.961 126.5 0.1 12 -999
2011-02-23 07:41:28 51°13.664 2°55.961 126.8 -999 166 -999
2011-02-23 07:41:33 51°13.664 2°55.961 127.1 0.1 142 -999
2011-02-23 07:41:38 51°13.664 2°55.961 127.5 -999 70 -999
2011-02-23 07:41:43 51°13.664 2°55.961 127.9 -999 90 -999
2011-02-23 07:41:48 51°13.664 2°55.961 128.4 0.1 162 -999
2011-02-23 07:41:53 51°13.664 2°55.961 128.6 0.1 155 -999
2011-02-23 07:41:58 51°13.663 2°55.961 128.9 0.1 163 -999
2011-02-23 07:42:03 51°13.663 2°55.961 129.3 0.1 187 -999
2011-02-23 07:42:08 51°13.664 2°55.961 129.5 -999 336 -999
2011-02-23 07:42:13 51°13.664 2°55.961 129.6 -999 274 -999
2011-02-23 07:42:18 51°13.663 2°55.961 129.4 0.1 165 -999
2011-02-23 07:42:23 51°13.664 2°55.961 129.3 -999 314 -999
2011-02-23 07:42:28 51°13.664 2°55.961 129.3 -999 345 -999
2011-02-23 07:42:33 51°13.664 2°55.961 129.3 -999 356 -999
2011-02-23 07:42:38 51°13.664 2°55.961 129.3 0.1 185 -999
2011-02-23 07:42:43 51°13.664 2°55.961 129.3 0.1 171 -999
2011-02-23 07:42:48 51°13.664 2°55.961 129.3 0.1 186 -999
2011-02-23 07:42:53 51°13.664 2°55.961 129.3 0.1 184 -999
2011-02-23 07:42:58 51°13.664 2°55.961 129.3 0.1 176 -999
2011-02-23 07:43:03 51°13.664 2°55.961 129.3 0.1 179 -999
2011-02-23 07:43:08 51°13.664 2°55.961 129.3 0.1 184 -999
2011-02-23 07:43:13 51°13.664 2°55.961 129.4 0.1 21 -999
2011-02-23 07:43:18 51°13.664 2°55.961 129.4 0.2 347 -999
2011-02-23 07:43:23 51°13.664 2°55.961 129.5 0.1 190 -999
2011-02-23 07:43:28 51°13.664 2°55.961 129.5 0.1 59 -999
2011-02-23 07:43:33 51°13.664 2°55.961 129.5 -999 126 -999
2011-02-23 07:43:38 51°13.664 2°55.962 129.4 0.1 167 -999
2011-02-23 07:43:43 51°13.664 2°55.961 129.4 -999 13 -999
2011-02-23 07:43:48 51°13.664 2°55.961 129.4 -999 225 -999
2011-02-23 07:43:53 51°13.663 2°55.961 129.4 0.2 196 -999
2011-02-23 07:43:58 51°13.663 2°55.961 129.4 0.1 184 -999
2011-02-23 07:44:03 51°13.663 2°55.961 129.4 -999 205 -999
2011-02-23 07:44:08 51°13.663 2°55.961 129.4 -999 15 -999
2011-02-23 07:44:13 51°13.663 2°55.961 129.4 -999 240 -999
2011-02-23 07:44:17 51°13.663 2°55.961 129.3 0.1 186 -999
2011-02-23 07:44:22 51°13.663 2°55.961 129.3 0.1 198 -999
2011-02-23 07:44:27 51°13.663 2°55.961 129.1 0.1 178 -999
2011-02-23 07:44:32 51°13.663 2°55.962 129.1 -999 158 -999
2011-02-23 07:44:37 51°13.664 2°55.962 129.1 0.1 357 -999
2011-02-23 07:44:42 51°13.664 2°55.962 129.1 0.1 295 -999
2011-02-23 07:44:47 51°13.664 2°55.962 129 0.1 184 -999
2011-02-23 07:44:52 51°13.664 2°55.962 129.1 0.1 355 -999
2011-02-23 07:44:58 51°13.664 2°55.961 129.2 0.1 335 -999
2011-02-23 07:45:03 51°13.663 2°55.961 129.3 -999 182 -999
2011-02-23 07:45:07 51°13.663 2°55.961 129.4 0.1 6 -999
2011-02-23 07:45:12 51°13.663 2°55.961 129.4 0.1 359 -999
2011-02-23 07:45:17 51°13.663 2°55.961 129.3 0.1 337 -999
2011-02-23 07:45:23 51°13.663 2°55.962 129.2 -999 342 -999
2011-02-23 07:45:28 51°13.663 2°55.962 129 0.1 54 -999
2011-02-23 07:45:33 51°13.664 2°55.962 128.7 0.1 359 -999
2011-02-23 07:45:38 51°13.664 2°55.962 128.5 0.1 168 -999
2011-02-23 07:45:43 51°13.664 2°55.963 128.4 0.2 180 -999
2011-02-23 07:45:48 51°13.665 2°55.963 128.2 0.1 175 -999
2011-02-23 07:45:53 51°13.666 2°55.964 128.2 0.1 13 -999
2011-02-23 07:45:58 51°13.666 2°55.964 128.3 -999 314 -999
2011-02-23 07:46:03 51°13.666 2°55.964 128.4 -999 208 -999
2011-02-23 07:46:08 51°13.666 2°55.964 128.6 0.1 203 -999
2011-02-23 07:46:13 51°13.666 2°55.964 128.6 0.1 205 -999
2011-02-23 07:46:18 51°13.665 2°55.964 128.6 0.1 190 -999
2011-02-23 07:46:23 51°13.665 2°55.964 128.6 0.1 140 -999
2011-02-23 07:46:28 51°13.665 2°55.963 128.7 0.1 172 -999
2011-02-23 07:46:33 51°13.665 2°55.963 128.7 0.1 167 -999
2011-02-23 07:46:38 51°13.665 2°55.963 128.8 -999 73 -999
2011-02-23 07:46:43 51°13.665 2°55.962 128.8 -999 29 -999
2011-02-23 07:46:48 51°13.664 2°55.962 128.8 -999 -999 -999
2011-02-23 07:46:53 51°13.664 2°55.962 128.8 0.1 311 -999
2011-02-23 07:46:58 51°13.664 2°55.962 128.7 0.1 187 -999
2011-02-23 07:47:03 51°13.664 2°55.962 128.6 0.1 181 -999
2011-02-23 07:47:08 51°13.664 2°55.962 128.6 0.2 170 -999
2011-02-23 07:47:13 51°13.664 2°55.962 128.6 0.1 172 -999
2011-02-23 07:47:18 51°13.664 2°55.962 128.5 0.1 178 -999
2011-02-23 07:47:23 51°13.664 2°55.962 128.4 0.1 12 -999
2011-02-23 07:47:28 51°13.664 2°55.962 128.3 0.1 351 -999
2011-02-23 07:47:33 51°13.664 2°55.962 128.1 0.1 322 -999
2011-02-23 07:47:38 51°13.664 2°55.962 128.1 -999 307 -999
2011-02-23 07:47:43 51°13.664 2°55.962 128 0.1 178 -999
2011-02-23 07:47:48 51°13.664 2°55.962 128 -999 299 -999
2011-02-23 07:47:53 51°13.663 2°55.962 128 0.1 211 -999
2011-02-23 07:47:58 51°13.663 2°55.962 128 0.2 187 -999
2011-02-23 07:48:03 51°13.663 2°55.962 128.1 -999 189 -999
2011-02-23 07:48:08 51°13.663 2°55.962 128.1 -999 220 -999
2011-02-23 07:48:13 51°13.663 2°55.962 128.1 0.1 198 -999
2011-02-23 07:48:18 51°13.662 2°55.962 128.1 0.1 186 -999
2011-02-23 07:48:23 51°13.663 2°55.962 128.1 -999 218 -999
2011-02-23 07:48:28 51°13.663 2°55.962 128.1 -999 255 -999
2011-02-23 07:48:33 51°13.663 2°55.962 128.1 -999 23 -999
2011-02-23 07:48:38 51°13.663 2°55.962 128 0.1 8 -999
2011-02-23 07:48:43 51°13.663 2°55.961 128 -999 357 -999
2011-02-23 07:48:48 51°13.663 2°55.961 128 0.1 328 -999
2011-02-23 07:48:52 51°13.662 2°55.961 128 0.1 208 -999
2011-02-23 07:48:57 51°13.662 2°55.961 128.2 -999 181 -999
2011-02-23 07:49:02 51°13.663 2°55.961 128.5 0.1 358 -999
2011-02-23 07:49:07 51°13.663 2°55.961 128.7 0.1 20 -999
2011-02-23 07:49:12 51°13.662 2°55.961 129 0.1 75 -999
2011-02-23 07:49:18 51°13.662 2°55.961 129.1 0.1 17 -999
2011-02-23 07:49:22 51°13.662 2°55.961 129.2 -999 28 -999
2011-02-23 07:49:27 51°13.662 2°55.961 129.1 0.1 16 -999
2011-02-23 07:49:32 51°13.662 2°55.961 128.9 -999 134 -999
2011-02-23 07:49:37 51°13.662 2°55.961 128.8 0.1 8 -999
2011-02-23 07:49:43 51°13.662 2°55.961 128.7 0.1 3 -999
2011-02-23 07:49:47 51°13.662 2°55.961 128.7 -999 265 -999
2011-02-23 07:49:52 51°13.661 2°55.961 128.7 0.1 192 -999
2011-02-23 07:49:58 51°13.661 2°55.961 128.7 -999 169 -999
2011-02-23 07:50:03 51°13.661 2°55.961 128.8 0.1 186 -999
2011-02-23 07:50:08 51°13.661 2°55.961 128.8 -999 152 -999
2011-02-23 07:50:13 51°13.662 2°55.962 128.8 -999 109 -999
2011-02-23 07:50:18 51°13.662 2°55.962 128.8 -999 89 -999
2011-02-23 07:50:23 51°13.661 2°55.962 128.8 -999 166 -999
2011-02-23 07:50:28 51°13.662 2°55.961 128.8 0.1 14 -999
2011-02-23 07:50:33 51°13.662 2°55.961 128.8 0.2 4 -999
2011-02-23 07:50:38 51°13.662 2°55.961 128.8 -999 7 -999
2011-02-23 07:50:43 51°13.662 2°55.961 128.8 0.1 180 -999
2011-02-23 07:50:48 51°13.662 2°55.961 128.8 -999 140 -999
2011-02-23 07:50:53 51°13.662 2°55.961 128.8 -999 16 -999
2011-02-23 07:50:58 51°13.662 2°55.961 128.8 0.1 358 -999
2011-02-23 07:51:03 51°13.661 2°55.961 128.8 0.2 188 -999
2011-02-23 07:51:08 51°13.662 2°55.961 128.8 0.1 182 -999
2011-02-23 07:51:13 51°13.662 2°55.961 128.8 -999 249 -999
2011-02-23 07:51:18 51°13.662 2°55.961 128.8 0.1 323 -999
2011-02-23 07:51:23 51°13.662 2°55.961 128.8 -999 284 -999
2011-02-23 07:51:27 51°13.662 2°55.961 128.8 0.1 188 -999
2011-02-23 07:51:33 51°13.662 2°55.961 128.8 0.1 37 -999
2011-02-23 07:51:38 51°13.662 2°55.961 128.8 0.2 357 -999
2011-02-23 07:51:43 51°13.661 2°55.961 128.8 -999 213 -999
2011-02-23 07:51:48 51°13.661 2°55.961 128.8 0.1 189 -999
2011-02-23 07:51:53 51°13.661 2°55.961 128.8 0.2 186 -999
2011-02-23 07:51:58 51°13.661 2°55.961 128.8 0.1 191 -999
2011-02-23 07:52:03 51°13.661 2°55.961 128.8 0.1 183 -999
2011-02-23 07:52:08 51°13.662 2°55.961 128.8 -999 15 -999
2011-02-23 07:52:13 51°13.662 2°55.961 128.8 0.1 359 -999
2011-02-23 07:52:18 51°13.662 2°55.96 128.8 -999 312 -999
2011-02-23 07:52:23 51°13.662 2°55.96 128.8 -999 266 -999
2011-02-23 07:52:28 51°13.662 2°55.96 128.8 0.1 339 -999
2011-02-23 07:52:33 51°13.661 2°55.96 128.8 0.1 272 -999
2011-02-23 07:52:37 51°13.661 2°55.96 128.8 0.1 167 -999
2011-02-23 07:52:42 51°13.662 2°55.961 128.8 0.1 36 -999
2011-02-23 07:52:47 51°13.662 2°55.96 128.8 0.1 353 -999
2011-02-23 07:52:52 51°13.661 2°55.96 128.8 -999 235 -999
2011-02-23 07:52:57 51°13.661 2°55.96 128.8 0.2 187 -999
2011-02-23 07:53:02 51°13.661 2°55.96 128.8 0.1 172 -999
2011-02-23 07:53:07 51°13.662 2°55.961 128.8 0.1 21 -999
2011-02-23 07:53:12 51°13.661 2°55.96 128.8 0.1 341 -999
2011-02-23 07:53:17 51°13.661 2°55.96 128.9 0.1 187 -999
2011-02-23 07:53:23 51°13.661 2°55.96 128.9 0.1 195 -999
2011-02-23 07:53:27 51°13.661 2°55.961 128.9 0.1 190 -999
2011-02-23 07:53:33 51°13.661 2°55.961 128.9 -999 309 -999
2011-02-23 07:53:37 51°13.661 2°55.961 128.9 -999 85 -999
2011-02-23 07:53:43 51°13.661 2°55.961 129 0.1 6 -999
2011-02-23 07:53:47 51°13.661 2°55.961 129 0.1 8 -999
2011-02-23 07:53:53 51°13.661 2°55.961 129.1 0.1 347 -999
2011-02-23 07:53:58 51°13.661 2°55.961 129.1 0.1 352 -999
2011-02-23 07:54:03 51°13.661 2°55.961 129.1 -999 251 -999
2011-02-23 07:54:08 51°13.661 2°55.961 129.1 0.1 321 -999
2011-02-23 07:54:13 51°13.661 2°55.961 129.1 -999 316 -999
2011-02-23 07:54:18 51°13.661 2°55.961 129.1 -999 207 -999
2011-02-23 07:54:23 51°13.662 2°55.961 129.2 0.1 1 -999
2011-02-23 07:54:28 51°13.662 2°55.961 129.2 0.1 352 -999
2011-02-23 07:54:33 51°13.662 2°55.961 129.3 0.1 345 -999
2011-02-23 07:54:38 51°13.662 2°55.961 129.3 0.1 346 -999
2011-02-23 07:54:43 51°13.662 2°55.961 129.3 0.1 17 -999
2011-02-23 07:54:48 51°13.662 2°55.961 129.3 0.1 47 -999
2011-02-23 07:54:53 51°13.662 2°55.961 129.3 0.1 7 -999
2011-02-23 07:54:58 51°13.662 2°55.961 129.3 0.1 30 -999
2011-02-23 07:55:03 51°13.662 2°55.961 129.3 -999 167 -999
2011-02-23 07:55:08 51°13.661 2°55.961 129.3 0.1 154 -999
2011-02-23 07:55:13 51°13.662 2°55.961 129.3 0.1 133 -999
2011-02-23 07:55:18 51°13.662 2°55.961 129.1 -999 125 -999
2011-02-23 07:55:23 51°13.662 2°55.961 128.6 -999 103 -999
2011-02-23 07:55:28 51°13.662 2°55.961 127.9 0.1 56 -999
2011-02-23 07:55:33 51°13.662 2°55.961 127.1 0.1 39 -999
2011-02-23 07:55:38 51°13.662 2°55.961 126.4 0.1 26 -999
2011-02-23 07:55:43 51°13.662 2°55.961 125.4 0.1 12 -999
2011-02-23 07:55:48 51°13.662 2°55.961 124.6 -999 302 -999
2011-02-23 07:55:53 51°13.662 2°55.961 124.6 0.1 194 -999
2011-02-23 07:55:58 51°13.661 2°55.961 124.2 0.1 179 -999
2011-02-23 07:56:03 51°13.661 2°55.961 123.6 0.1 201 -999
2011-02-23 07:56:08 51°13.661 2°55.961 122.9 0.1 186 7.6
2011-02-23 07:56:13 51°13.661 2°55.961 122.3 0.1 208 -999
2011-02-23 07:56:18 51°13.661 2°55.961 121.4 0.1 211 7.7
2011-02-23 07:56:23 51°13.661 2°55.961 120.5 0.1 182 7.8
2011-02-23 07:56:28 51°13.661 2°55.961 119.4 -999 196 -999
2011-02-23 07:56:33 51°13.661 2°55.961 118.1 -999 211 -999
2011-02-23 07:56:38 51°13.661 2°55.961 117.3 0.1 195 -999
2011-02-23 07:56:43 51°13.661 2°55.961 116.2 0.1 194 -999
2011-02-23 07:56:48 51°13.661 2°55.961 115 -999 356 -999
2011-02-23 07:56:53 51°13.661 2°55.961 113.9 0.1 201 -999
2011-02-23 07:56:58 51°13.66 2°55.96 112.8 0.1 216 -999
2011-02-23 07:57:03 51°13.66 2°55.96 111.8 0.1 286 -999
2011-02-23 07:57:08 51°13.66 2°55.96 111.1 0.3 281 -999
2011-02-23 07:57:13 51°13.66 2°55.958 110.8 0.6 280 -999
2011-02-23 07:57:18 51°13.661 2°55.956 110.7 0.9 280 7.6
2011-02-23 07:57:23 51°13.662 2°55.954 110.7 1.3 295 -999
2011-02-23 07:57:28 51°13.663 2°55.95 111.1 1.8 293 7.9
2011-02-23 07:57:33 51°13.664 2°55.945 111.6 2.3 296 -999
2011-02-23 07:57:38 51°13.666 2°55.94 112.1 2.6 295 -999
2011-02-23 07:57:43 51°13.667 2°55.935 112.6 2.6 296 -999
2011-02-23 07:57:48 51°13.669 2°55.93 112.9 2.7 296 -999
2011-02-23 07:57:53 51°13.671 2°55.924 112.9 2.9 298 -999
2011-02-23 07:57:58 51°13.673 2°55.918 112.5 3.1 295 -999
2011-02-23 07:58:03 51°13.675 2°55.911 111.6 3.3 295 -999
2011-02-23 07:58:08 51°13.677 2°55.905 110.4 3.4 292 -999
2011-02-23 07:58:12 51°13.678 2°55.899 109.2 3.5 292 -999
2011-02-23 07:58:17 51°13.68 2°55.891 107.9 3.7 292 -999
2011-02-23 07:58:23 51°13.683 2°55.882 106.6 3.9 290 -999
2011-02-23 07:58:28 51°13.684 2°55.873 105.1 4 289 -999
2011-02-23 07:58:32 51°13.685 2°55.866 103.5 4.1 286 -999
2011-02-23 07:58:37 51°13.687 2°55.857 101.9 4.1 284 -999
2011-02-23 07:58:43 51°13.689 2°55.847 99.8 4.2 283 -999
2011-02-23 07:58:48 51°13.69 2°55.837 97.4 4.2 283 -999
2011-02-23 07:58:52 51°13.691 2°55.83 95.6 4.3 282 -999
2011-02-23 07:58:57 51°13.692 2°55.82 94.2 4.4 279 -999
2011-02-23 07:59:03 51°13.692 2°55.809 92.3 4.3 276 -999
2011-02-23 07:59:07 51°13.692 2°55.801 89.9 4.3 274 -999
2011-02-23 07:59:13 51°13.693 2°55.79 87.7 4.3 273 -999
2011-02-23 07:59:17 51°13.693 2°55.783 85.7 4.2 270 -999
2011-02-23 07:59:23 51°13.692 2°55.772 82.9 4.1 266 -999
2011-02-23 07:59:27 51°13.692 2°55.765 79.4 3.8 267 -999
2011-02-23 07:59:32 51°13.692 2°55.757 76.7 3.7 264 -999
2011-02-23 07:59:38 51°13.69 2°55.748 74.6 3.5 260 -999
2011-02-23 07:59:43 51°13.69 2°55.741 72.4 3 260 -999
2011-02-23 07:59:48 51°13.689 2°55.736 70.5 2.1 260 -999
2011-02-23 07:59:52 51°13.689 2°55.734 67.2 1.3 265 -999
2011-02-23 07:59:57 51°13.69 2°55.733 61.8 0.6 325 -999
2011-02-23 08:00:03 51°13.692 2°55.734 54.5 1.1 16 -999
2011-02-23 08:00:07 51°13.693 2°55.735 46 1.8 20 -999
2011-02-23 08:00:12 51°13.697 2°55.737 36.4 2.5 16 -999
2011-02-23 08:00:17 51°13.701 2°55.738 26.6 3.1 10 -999
2011-02-23 08:00:22 51°13.706 2°55.738 16.7 3.7 -999 -999
2011-02-23 08:00:27 51°13.712 2°55.737 8.9 4.2 352 5.1
2011-02-23 08:00:32 51°13.718 2°55.735 359.7 4.6 347 -999
2011-02-23 08:00:37 51°13.725 2°55.731 350.7 5.2 340 -999
2011-02-23 08:00:42 51°13.732 2°55.726 341.1 5.6 335 -999
2011-02-23 08:00:47 51°13.739 2°55.72 335.1 6 334 -999
2011-02-23 08:00:52 51°13.747 2°55.713 333.2 6.3 332 -999
2011-02-23 08:00:57 51°13.755 2°55.705 331.6 6.8 330 -999
2011-02-23 08:01:02 51°13.763 2°55.698 330.9 7.1 330 -999
2011-02-23 08:01:07 51°13.772 2°55.689 330.5 7.3 329 -999
2011-02-23 08:01:12 51°13.781 2°55.681 330.3 7.5 329 -999
2011-02-23 08:01:17 51°13.79 2°55.672 330.2 7.6 329 -999
2011-02-23 08:01:22 51°13.799 2°55.663 330.2 7.7 330 -999
2011-02-23 08:01:27 51°13.809 2°55.655 330.2 7.8 330 10.1
2011-02-23 08:01:32 51°13.818 2°55.646 330.2 7.8 330 10.2
2011-02-23 08:01:37 51°13.827 2°55.638 330.3 7.9 331 10.1
2011-02-23 08:01:42 51°13.837 2°55.629 330.6 8 331 -999
2011-02-23 08:01:47 51°13.847 2°55.621 331.4 8 332 -999
2011-02-23 08:01:52 51°13.857 2°55.612 332.5 8 332 -999
2011-02-23 08:01:57 51°13.867 2°55.605 333.6 8.1 334 -999
2011-02-23 08:02:02 51°13.877 2°55.597 334.1 8.2 334 9.8
2011-02-23 08:02:07 51°13.887 2°55.589 334.6 8.2 335 -999
2011-02-23 08:02:12 51°13.898 2°55.581 335.4 8.2 335 -999
2011-02-23 08:02:17 51°13.908 2°55.573 335.5 8.2 335 10.6
2011-02-23 08:02:22 51°13.918 2°55.566 335.5 8.3 335 -999
2011-02-23 08:02:27 51°13.929 2°55.558 335.9 8.4 336 -999
2011-02-23 08:02:32 51°13.94 2°55.55 336.1 8.4 335 -999
2011-02-23 08:02:37 51°13.95 2°55.543 336.2 8.5 335 -999
2011-02-23 08:02:42 51°13.961 2°55.535 335.8 8.5 335 -999
2011-02-23 08:02:47 51°13.972 2°55.527 335.6 8.6 336 -999
2011-02-23 08:02:52 51°13.983 2°55.519 335.7 8.6 336 -999
2011-02-23 08:02:56 51°13.992 2°55.513 336.1 8.6 336 4.9
2011-02-23 08:03:02 51°14.004 2°55.504 336.2 8.5 335 7.5
2011-02-23 08:03:07 51°14.015 2°55.496 336 8.5 334 4.9
2011-02-23 08:03:12 51°14.025 2°55.487 335.2 8.5 335 4.9
2011-02-23 08:03:16 51°14.034 2°55.481 335.3 8.5 335 -999
2011-02-23 08:03:21 51°14.045 2°55.473 335.6 8.5 335 10.7
2011-02-23 08:03:26 51°14.056 2°55.465 335.4 8.6 335 5.1
2011-02-23 08:03:32 51°14.069 2°55.456 335.4 8.7 335 -999
2011-02-23 08:03:36 51°14.078 2°55.449 336 8.9 333 10.1
2011-02-23 08:03:41 51°14.089 2°55.439 335.4 9 333 10.4
2011-02-23 08:03:46 51°14.1 2°55.43 334.8 9.2 334 5
2011-02-23 08:03:52 51°14.115 2°55.42 335.3 9.4 335 -999
2011-02-23 08:03:57 51°14.126 2°55.411 335.8 9.5 335 -999
2011-02-23 08:04:02 51°14.139 2°55.402 336.2 9.6 335 -999
2011-02-23 08:04:07 51°14.151 2°55.392 336 9.6 334 4.8
2011-02-23 08:04:12 51°14.163 2°55.383 336 9.7 334 -999
2011-02-23 08:04:17 51°14.175 2°55.373 335.4 9.8 332 -999
2011-02-23 08:04:22 51°14.187 2°55.363 334.5 9.9 333 4.8
2011-02-23 08:04:27 51°14.199 2°55.353 334.3 10 331 4.9
2011-02-23 08:04:32 51°14.211 2°55.342 333.4 10.2 331 4.8
2011-02-23 08:04:37 51°14.224 2°55.331 332.5 10.3 331 4.8
2011-02-23 08:04:42 51°14.237 2°55.319 332.3 10.4 330 4.9
2011-02-23 08:04:46 51°14.247 2°55.31 331.7 10.6 328 5
2011-02-23 08:04:52 51°14.262 2°55.295 330.5 10.6 330 -999
2011-02-23 08:04:56 51°14.272 2°55.286 330.8 10.7 330 5
2011-02-23 08:05:01 51°14.285 2°55.274 331.1 10.8 329 5
2011-02-23 08:05:06 51°14.298 2°55.261 330.8 11 328 5
2011-02-23 08:05:11 51°14.312 2°55.248 330.2 11.1 329 4.9
2011-02-23 08:05:16 51°14.325 2°55.236 330 11.2 329 -999
2011-02-23 08:05:20 51°14.335 2°55.225 329.6 11.3 329 9.8
2011-02-23 08:05:25 51°14.349 2°55.212 330.4 11.3 329 5.1
2011-02-23 08:05:30 51°14.362 2°55.199 330.8 11.4 327 -999
2011-02-23 08:05:35 51°14.375 2°55.185 328.8 11.5 325 4.9
2011-02-23 08:05:40 51°14.389 2°55.17 327.9 11.6 327 9.9
2011-02-23 08:05:44 51°14.399 2°55.159 328.1 11.7 325 10
2011-02-23 08:05:49 51°14.413 2°55.145 328.4 11.8 327 -999
2011-02-23 08:05:54 51°14.427 2°55.13 329 11.9 327 10.1
2011-02-23 08:05:59 51°14.441 2°55.115 329 12 328 10.2
2011-02-23 08:06:04 51°14.455 2°55.101 329.3 12 328 10.1
2011-02-23 08:06:08 51°14.466 2°55.09 329.1 12.1 327 10.5
2011-02-23 08:06:14 51°14.483 2°55.072 328.6 12.2 326 10.8
2011-02-23 08:06:19 51°14.497 2°55.057 327.3 12.4 326 10.6
2011-02-23 08:06:24 51°14.511 2°55.041 326.5 12.5 324 10.3
2011-02-23 08:06:28 51°14.523 2°55.028 326.6 12.6 324 10.9
2011-02-23 08:06:34 51°14.539 2°55.006 325.1 12.7 320 11
2011-02-23 08:06:39 51°14.552 2°54.987 323.8 12.9 319 11
2011-02-23 08:06:44 51°14.566 2°54.969 324.3 13.1 320 11
2011-02-23 08:06:48 51°14.577 2°54.953 324.5 13.2 318 11
2011-02-23 08:06:54 51°14.594 2°54.931 325.5 13.2 321 11
2011-02-23 08:06:59 51°14.609 2°54.912 327.1 13.3 321 10.9
2011-02-23 08:07:04 51°14.623 2°54.894 327.3 13.3 321 11
2011-02-23 08:07:08 51°14.634 2°54.879 327.5 13.4 322 10.9
2011-02-23 08:07:14 51°14.652 2°54.857 328.2 13.4 323 10.8
2011-02-23 08:07:19 51°14.667 2°54.839 327.8 13.5 322 11
2011-02-23 08:07:24 51°14.682 2°54.822 328.2 13.4 324 11
2011-02-23 08:07:28 51°14.694 2°54.807 328.6 13.5 322 10.9
2011-02-23 08:07:34 51°14.712 2°54.786 328.9 13.4 325 11.2
2011-02-23 08:07:39 51°14.727 2°54.768 329.1 13.5 323 11.1
2011-02-23 08:07:44 51°14.742 2°54.752 330.1 13.4 326 10.6
2011-02-23 08:07:49 51°14.757 2°54.735 330.6 13.4 325 11
2011-02-23 08:07:54 51°14.773 2°54.72 331.6 13.3 328 11
2011-02-23 08:07:59 51°14.789 2°54.703 331.8 13.4 327 11
2011-02-23 08:08:04 51°14.805 2°54.688 331.8 13.4 328 11.1
2011-02-23 08:08:09 51°14.82 2°54.672 332.3 13.4 328 11.2
2011-02-23 08:08:14 51°14.836 2°54.657 332.4 13.3 329 11.2
2011-02-23 08:08:19 51°14.852 2°54.641 332.3 13.4 328 11.2
2011-02-23 08:08:24 51°14.868 2°54.626 332.6 13.3 330 11.2
2011-02-23 08:08:29 51°14.884 2°54.612 334 13.4 330 11.5
2011-02-23 08:08:34 51°14.9 2°54.597 334 13.5 330 11.6
2011-02-23 08:08:39 51°14.916 2°54.582 334.2 13.4 331 11.5
2011-02-23 08:08:44 51°14.932 2°54.567 334.2 13.4 331 10.3
2011-02-23 08:08:48 51°14.945 2°54.555 333.8 13.3 331 10.2
2011-02-23 08:08:54 51°14.965 2°54.539 334.7 13.2 333 10.2
2011-02-23 08:08:59 51°14.98 2°54.524 335.8 13.1 330 10
2011-02-23 08:09:04 51°14.996 2°54.51 334.4 13.2 329 10
2011-02-23 08:09:08 51°15.008 2°54.496 331.9 13.3 326 10.1
2011-02-23 08:09:14 51°15.027 2°54.477 330.9 13.3 326 10.4
2011-02-23 08:09:19 51°15.041 2°54.458 328.4 13.3 322 10
2011-02-23 08:09:24 51°15.056 2°54.441 326.3 13.3 322 10.6
2011-02-23 08:09:28 51°15.067 2°54.425 324.5 13.3 320 10
2011-02-23 08:09:34 51°15.084 2°54.403 323.7 13.3 321 10
2011-02-23 08:09:39 51°15.099 2°54.385 323.6 13.4 321 10.2
2011-02-23 08:09:44 51°15.113 2°54.366 323.5 13.4 320 10.1
2011-02-23 08:09:49 51°15.127 2°54.346 322.8 13.4 320 10.3
2011-02-23 08:09:54 51°15.141 2°54.327 323.3 13.5 321 10.6
2011-02-23 08:09:59 51°15.155 2°54.308 323.1 13.5 318 10.7
2011-02-23 08:10:04 51°15.17 2°54.288 322 13.5 318 10.9
2011-02-23 08:10:09 51°15.183 2°54.268 320.9 13.5 317 10.4
2011-02-23 08:10:14 51°15.197 2°54.247 320.1 13.5 317 10.5
2011-02-23 08:10:19 51°15.211 2°54.228 320.3 13.5 319 10.8
2011-02-23 08:10:24 51°15.226 2°54.209 322 13.5 321 11
2011-02-23 08:10:29 51°15.24 2°54.19 323.5 13.5 321 10.7
2011-02-23 08:10:34 51°15.255 2°54.172 325.1 13.5 323 11.3
2011-02-23 08:10:39 51°15.27 2°54.154 325.8 13.5 322 10.9
2011-02-23 08:10:44 51°15.285 2°54.136 325.9 13.4 323 10.5
2011-02-23 08:10:49 51°15.299 2°54.118 326 13.4 322 10.9
2011-02-23 08:10:54 51°15.314 2°54.1 325.4 13.4 322 10.8
2011-02-23 08:10:59 51°15.328 2°54.082 325 13.3 322 10.9
2011-02-23 08:11:04 51°15.343 2°54.063 324.5 13.4 321 10.9
2011-02-23 08:11:08 51°15.354 2°54.048 324.2 13.4 321 10.9
2011-02-23 08:11:14 51°15.372 2°54.026 323.9 13.4 321 10.9
2011-02-23 08:11:19 51°15.386 2°54.007 323.8 13.4 321 11.5
2011-02-23 08:11:24 51°15.4 2°53.988 323.2 13.4 320 11.2
2011-02-23 08:11:28 51°15.412 2°53.973 323.1 13.4 321 11.1
2011-02-23 08:11:34 51°15.429 2°53.95 323 13.5 320 11.1
2011-02-23 08:11:39 51°15.443 2°53.93 322.7 13.5 320 11.1
2011-02-23 08:11:44 51°15.457 2°53.911 322.3 13.6 319 11
2011-02-23 08:11:48 51°15.469 2°53.895 322.3 13.6 320 10.9
2011-02-23 08:11:54 51°15.486 2°53.872 322.4 13.7 320 11.1
2011-02-23 08:11:59 51°15.501 2°53.852 322.4 13.7 320 11.2
2011-02-23 08:12:04 51°15.516 2°53.832 322.4 13.8 320 11.2
2011-02-23 08:12:09 51°15.53 2°53.813 322.8 13.9 320 11.1
2011-02-23 08:12:14 51°15.545 2°53.793 323.4 13.8 321 11
2011-02-23 08:12:19 51°15.56 2°53.774 324.2 13.9 322 11.1
2011-02-23 08:12:24 51°15.576 2°53.756 324.9 13.9 322 11.1
2011-02-23 08:12:29 51°15.591 2°53.738 325.8 13.9 323 11.1
2011-02-23 08:12:34 51°15.607 2°53.719 326.5 13.9 323 11.3
2011-02-23 08:12:39 51°15.623 2°53.701 327 14 324 11.3
2011-02-23 08:12:44 51°15.638 2°53.682 327.3 14 323 11.2
2011-02-23 08:12:49 51°15.653 2°53.664 327 14 323 11.3
2011-02-23 08:12:54 51°15.669 2°53.645 326.4 14 322 11
2011-02-23 08:12:59 51°15.684 2°53.625 325.7 14 321 11.3
2011-02-23 08:13:04 51°15.698 2°53.605 324.7 13.9 320 11.5
2011-02-23 08:13:09 51°15.713 2°53.585 323.9 13.8 319 11.6
2011-02-23 08:13:14 51°15.727 2°53.566 324 13.8 321 11.6
2011-02-23 08:13:19 51°15.743 2°53.547 325.5 13.8 323 11.6
2011-02-23 08:13:24 51°15.758 2°53.529 327.3 13.8 322 11.7
2011-02-23 08:13:28 51°15.77 2°53.514 328.2 13.7 322 11.2
2011-02-23 08:13:34 51°15.788 2°53.491 328.2 13.8 321 11.6
2011-02-23 08:13:39 51°15.803 2°53.472 328.4 13.8 323 5.2
2011-02-23 08:13:44 51°15.818 2°53.455 329.1 13.7 325 11.2
2011-02-23 08:13:48 51°15.831 2°53.442 331 13.7 326 11.2
2011-02-23 08:13:53 51°15.847 2°53.425 331.3 13.7 327 11.2
2011-02-23 08:13:59 51°15.866 2°53.405 332.1 13.6 326 11.6
2011-02-23 08:14:04 51°15.882 2°53.388 332.2 13.7 327 11.6
2011-02-23 08:14:08 51°15.895 2°53.375 332.2 13.7 326 11.6
2011-02-23 08:14:13 51°15.91 2°53.358 331.5 13.6 326 11.2
2011-02-23 08:14:19 51°15.929 2°53.338 331 13.7 326 11.3
2011-02-23 08:14:24 51°15.945 2°53.321 330.3 13.7 325 11.3
2011-02-23 08:14:28 51°15.957 2°53.307 330.2 13.6 326 11.2
2011-02-23 08:14:34 51°15.976 2°53.287 330.5 13.6 326 11.2
2011-02-23 08:14:39 51°15.991 2°53.27 330.6 13.6 326 11.2
2011-02-23 08:14:44 51°16.007 2°53.253 330.8 13.6 326 11.2
2011-02-23 08:14:48 51°16.02 2°53.241 332 13.5 328 11.1
2011-02-23 08:14:54 51°16.039 2°53.222 333.2 13.5 329 11.2
2011-02-23 08:14:59 51°16.056 2°53.207 334.1 13.6 330 11.2
2011-02-23 08:15:04 51°16.072 2°53.193 335 13.5 331 11.3
2011-02-23 08:15:08 51°16.085 2°53.181 335.7 13.6 331 11.3
2011-02-23 08:15:14 51°16.105 2°53.164 335.8 13.5 331 11.3
2011-02-23 08:15:19 51°16.121 2°53.15 335.8 13.6 331 11.3
2011-02-23 08:15:24 51°16.138 2°53.135 335.6 13.6 331 11.3
2011-02-23 08:15:28 51°16.151 2°53.123 335.2 13.5 329 11.4
2011-02-23 08:15:34 51°16.17 2°53.103 334.5 13.5 328 11.3
2011-02-23 08:15:39 51°16.186 2°53.088 333.9 13.5 329 11.4
2011-02-23 08:15:44 51°16.202 2°53.072 333.6 13.6 328 11.4
2011-02-23 08:15:48 51°16.215 2°53.06 333.4 13.6 329 11.4
2011-02-23 08:15:53 51°16.231 2°53.044 333.4 13.6 329 11.4
2011-02-23 08:15:59 51°16.25 2°53.025 333.9 13.7 330 11.4
2011-02-23 08:16:04 51°16.267 2°53.012 334.8 13.6 332 11.5
2011-02-23 08:16:08 51°16.28 2°53 336.6 13.5 333 11.4
2011-02-23 08:16:13 51°16.297 2°52.987 338.2 13.5 335 11.4
2011-02-23 08:16:19 51°16.318 2°52.972 339.4 13.6 336 11.4
2011-02-23 08:16:24 51°16.335 2°52.96 340.3 13.6 336 11.5
2011-02-23 08:16:28 51°16.349 2°52.95 340.8 13.6 336 11.5
2011-02-23 08:16:33 51°16.366 2°52.939 341.1 13.6 337 11.4
2011-02-23 08:16:39 51°16.387 2°52.924 341.4 13.6 336 11.4
2011-02-23 08:16:44 51°16.404 2°52.912 341.3 13.6 337 11.4
2011-02-23 08:16:48 51°16.418 2°52.902 341.2 13.6 336 11.4
2011-02-23 08:16:54 51°16.438 2°52.887 340.7 13.6 336 11.4
2011-02-23 08:16:59 51°16.455 2°52.875 340.5 13.5 335 11.4
2011-02-23 08:17:04 51°16.472 2°52.862 340 13.5 334 11.4
2011-02-23 08:17:08 51°16.486 2°52.852 339.8 13.6 335 11.3
2011-02-23 08:17:14 51°16.506 2°52.836 339.8 13.6 335 11.3
2011-02-23 08:17:19 51°16.524 2°52.824 339.8 13.6 335 11.2
2011-02-23 08:17:24 51°16.541 2°52.811 340 13.6 335 11.2
2011-02-23 08:17:28 51°16.554 2°52.801 339.9 13.5 335 11
2011-02-23 08:17:34 51°16.575 2°52.786 339.9 13.6 335 11.1
2011-02-23 08:17:39 51°16.592 2°52.774 339.9 13.5 335 11
2011-02-23 08:17:44 51°16.609 2°52.761 339.8 13.5 335 10.8
2011-02-23 08:17:48 51°16.623 2°52.751 339.8 13.6 335 11
2011-02-23 08:17:54 51°16.643 2°52.736 339.7 13.5 335 10.8
2011-02-23 08:17:59 51°16.66 2°52.724 339.7 13.6 336 10.6
2011-02-23 08:18:04 51°16.677 2°52.712 339.8 13.5 337 10.4
2011-02-23 08:18:08 51°16.692 2°52.704 342 13.5 341 10
2011-02-23 08:18:13 51°16.709 2°52.695 344.8 13.5 343 9.9
2011-02-23 08:18:19 51°16.731 2°52.685 347 13.3 345 9.7
2011-02-23 08:18:24 51°16.748 2°52.678 348.7 13.2 346 9.3
2011-02-23 08:18:28 51°16.763 2°52.672 350 13.2 347 9.3
2011-02-23 08:18:33 51°16.78 2°52.666 351.2 13.3 348 9.2
2011-02-23 08:18:39 51°16.802 2°52.659 351.5 13.3 348 9.1
2011-02-23 08:18:44 51°16.82 2°52.652 351.8 13.3 347 8.9
2011-02-23 08:18:48 51°16.834 2°52.647 351.8 13.3 347 9
2011-02-23 08:18:53 51°16.852 2°52.64 351.4 13.2 347 8.9
2011-02-23 08:18:59 51°16.873 2°52.632 351.2 13.3 346 9
2011-02-23 08:19:04 51°16.891 2°52.624 350.2 13.3 345 9.2
2011-02-23 08:19:08 51°16.905 2°52.617 349.2 13.3 344 9
2011-02-23 08:19:14 51°16.926 2°52.607 348.3 13.3 343 9.3
2011-02-23 08:19:19 51°16.944 2°52.599 347.8 13.4 343 9.5
2011-02-23 08:19:24 51°16.962 2°52.59 347.5 13.4 343 9.2
2011-02-23 08:19:28 51°16.976 2°52.583 347.3 13.4 344 9.4
2011-02-23 08:19:34 51°16.998 2°52.573 347.6 13.4 344 9.1
2011-02-23 08:19:39 51°17.016 2°52.566 348.1 13.4 345 9.1
2011-02-23 08:19:44 51°17.034 2°52.559 349.2 13.4 346 9.1
2011-02-23 08:19:48 51°17.048 2°52.554 350.6 13.4 347 9.1